createdAt,value
2022-10-08T00:00:11.721Z,8.40
2022-10-08T00:02:40.840Z,8.50
2022-10-08T00:05:10.492Z,8.50
2022-10-08T00:07:39.610Z,8.40
2022-10-08T00:10:10.416Z,8.40
2022-10-08T00:12:39.336Z,8.40
2022-10-08T00:15:09.294Z,8.40
2022-10-08T00:17:37.961Z,8.40
2022-10-08T00:20:07.382Z,8.40
2022-10-08T00:22:36.117Z,8.40
2022-10-08T00:25:05.032Z,8.40
2022-10-08T00:27:35.171Z,8.40
2022-10-08T00:30:04.171Z,8.40
2022-10-08T00:32:32.917Z,8.40
2022-10-08T00:35:01.673Z,8.40
2022-10-08T00:37:30.440Z,8.40
2022-10-08T00:39:59.099Z,8.40
2022-10-08T00:42:27.953Z,8.40
2022-10-08T00:44:59.756Z,8.40
2022-10-08T00:47:46.756Z,8.40
2022-10-08T00:50:19.417Z,8.40
2022-10-08T00:52:50.842Z,8.40
2022-10-08T00:55:23.294Z,8.40
2022-10-08T00:57:53.413Z,8.40
2022-10-08T01:00:26.079Z,8.30
2022-10-08T01:02:55.396Z,8.30
2022-10-08T01:05:30.284Z,8.30
2022-10-08T01:08:03.516Z,8.30
2022-10-08T01:10:39.334Z,8.30
2022-10-08T01:13:18.436Z,8.30
2022-10-08T01:15:56.302Z,8.20
2022-10-08T01:18:29.838Z,8.30
2022-10-08T01:21:05.118Z,8.30
2022-10-08T01:24:15.670Z,8.30
2022-10-08T01:26:57.156Z,8.20
2022-10-08T01:29:31.143Z,8.20
2022-10-08T01:32:03.456Z,8.20
2022-10-08T01:34:38.798Z,8.20
2022-10-08T01:37:12.029Z,8.20
2022-10-08T01:39:42.160Z,8.20
2022-10-08T01:42:12.430Z,8.20
2022-10-08T01:44:46.528Z,8.20
2022-10-08T01:47:21.634Z,8.20
2022-10-08T01:49:55.594Z,8.20
2022-10-08T01:52:28.347Z,8.10
2022-10-08T01:55:01.652Z,8.10
2022-10-08T01:57:32.169Z,8.10
2022-10-08T02:00:07.800Z,8.10
2022-10-08T02:02:44.371Z,8.10
2022-10-08T02:05:13.836Z,8.00
2022-10-08T02:07:44.707Z,8.00
2022-10-08T02:10:16.319Z,8.00
2022-10-08T02:12:46.053Z,8.00
2022-10-08T02:15:20.218Z,8.00
2022-10-08T02:17:57.050Z,8.00
2022-10-08T02:20:33.773Z,7.90
2022-10-08T02:23:07.807Z,7.90
2022-10-08T02:25:40.412Z,7.90
2022-10-08T02:28:14.566Z,7.90
2022-10-08T02:30:50.077Z,7.90
2022-10-08T02:33:25.644Z,7.90
2022-10-08T02:35:58.510Z,7.90
2022-10-08T02:38:31.932Z,7.90
2022-10-08T02:41:03.792Z,7.90
2022-10-08T02:43:36.456Z,7.90
2022-10-08T02:46:14.869Z,7.90
2022-10-08T02:48:48.291Z,7.90
2022-10-08T02:51:19.324Z,7.90
2022-10-08T02:53:49.685Z,7.80
2022-10-08T02:56:23.889Z,7.90
2022-10-08T02:58:53.357Z,7.90
2022-10-08T03:01:33.380Z,7.90
2022-10-08T03:04:06.454Z,7.90
2022-10-08T03:06:36.762Z,7.80
2022-10-08T03:09:07.465Z,7.80
2022-10-08T03:11:36.997Z,7.80
2022-10-08T03:14:09.681Z,7.80
2022-10-08T03:16:41.782Z,7.80
2022-10-08T03:19:12.680Z,7.80
2022-10-08T03:21:43.452Z,7.80
2022-10-08T03:24:14.084Z,7.80
2022-10-08T03:26:43.084Z,7.80
2022-10-08T03:29:11.838Z,7.80
2022-10-08T03:31:41.937Z,7.80
2022-10-08T03:34:10.903Z,7.80
2022-10-08T03:39:08.649Z,7.80
2022-10-08T03:41:37.310Z,7.80
2022-10-08T03:44:08.646Z,7.80
2022-10-08T03:46:37.507Z,7.70
2022-10-08T03:49:07.635Z,7.70
2022-10-08T03:51:36.515Z,7.70
2022-10-08T03:54:05.347Z,7.70
2022-10-08T03:56:34.710Z,7.70
2022-10-08T03:59:03.956Z,7.70
2022-10-08T04:01:32.769Z,7.70
2022-10-08T04:04:01.457Z,7.70
2022-10-08T04:06:31.719Z,7.70
2022-10-08T04:09:01.318Z,7.70
2022-10-08T04:11:30.222Z,7.70
2022-10-08T04:13:58.940Z,7.70
2022-10-08T04:16:27.754Z,7.70
2022-10-08T04:18:56.413Z,7.70
2022-10-08T04:21:25.167Z,7.70
2022-10-08T04:23:55.254Z,7.70
2022-10-08T04:26:23.966Z,7.70
2022-10-08T04:28:52.657Z,7.60
2022-10-08T04:31:23.637Z,7.60
2022-10-08T04:33:53.538Z,7.60
2022-10-08T04:36:23.586Z,7.60
2022-10-08T04:38:52.788Z,7.50
2022-10-08T04:41:24.529Z,7.60
2022-10-08T04:43:54.651Z,7.50
2022-10-08T04:46:24.062Z,7.50
2022-10-08T04:48:54.597Z,7.50
2022-10-08T04:51:24.770Z,7.50
2022-10-08T04:53:53.992Z,7.50
2022-10-08T04:56:25.929Z,7.50
2022-10-08T04:58:55.364Z,7.50
2022-10-08T05:01:25.737Z,7.50
2022-10-08T05:03:55.818Z,7.50
2022-10-08T05:06:27.225Z,7.50
2022-10-08T05:08:56.480Z,7.60
2022-10-08T05:11:28.394Z,7.60
2022-10-08T05:13:59.287Z,7.60
2022-10-08T05:16:28.785Z,7.60
2022-10-08T05:18:58.084Z,7.60
2022-10-08T05:21:29.102Z,7.60
2022-10-08T05:23:59.010Z,7.60
2022-10-08T05:26:59.262Z,7.60
2022-10-08T05:29:20.429Z,7.70
2022-10-08T05:31:49.116Z,7.70
2022-10-08T05:34:18.012Z,7.70
2022-10-08T05:36:46.684Z,7.80
2022-10-08T05:39:15.577Z,7.80
2022-10-08T05:41:45.875Z,7.80
2022-10-08T05:44:14.898Z,7.90
2022-10-08T05:46:43.801Z,7.90
2022-10-08T05:49:19.811Z,7.90
2022-10-08T05:51:48.933Z,8.00
2022-10-08T05:54:18.276Z,8.00
2022-10-08T05:56:49.929Z,8.00
2022-10-08T05:59:21.132Z,8.10
2022-10-08T06:01:50.358Z,8.10
2022-10-08T06:04:19.698Z,8.20
2022-10-08T06:06:48.697Z,8.20
2022-10-08T06:09:19.571Z,8.20
2022-10-08T06:11:50.272Z,8.30
2022-10-08T06:14:20.562Z,8.40
2022-10-08T06:16:49.802Z,8.40
2022-10-08T06:19:18.659Z,8.40
2022-10-08T06:21:47.477Z,8.50
2022-10-08T06:24:16.684Z,8.50
2022-10-08T06:26:46.451Z,8.50
2022-10-08T06:29:19.186Z,8.60
2022-10-08T06:31:48.700Z,8.60
2022-10-08T06:34:17.533Z,8.60
2022-10-08T06:36:46.170Z,8.70
2022-10-08T06:39:16.591Z,8.80
2022-10-08T06:41:45.456Z,8.80
2022-10-08T06:44:19.271Z,8.90
2022-10-08T06:46:48.201Z,8.90
2022-10-08T06:49:18.447Z,9.00
2022-10-08T06:51:47.259Z,9.00
2022-10-08T06:54:16.615Z,9.00
2022-10-08T06:56:45.328Z,9.10
2022-10-08T06:59:14.227Z,9.20
2022-10-08T07:01:44.398Z,9.20
2022-10-08T07:04:13.685Z,9.30
2022-10-08T07:06:42.439Z,9.20
2022-10-08T07:09:11.228Z,9.30
2022-10-08T07:11:40.628Z,9.30
2022-10-08T07:14:09.312Z,9.30
2022-10-08T07:16:38.313Z,9.40
2022-10-08T07:19:08.673Z,9.40
2022-10-08T07:24:06.644Z,9.50
2022-10-08T07:26:36.664Z,9.50
2022-10-08T07:29:07.716Z,9.60
2022-10-08T07:31:38.477Z,9.60
2022-10-08T07:34:11.089Z,9.70
2022-10-08T07:36:40.593Z,9.70
2022-10-08T07:39:12.210Z,9.80
2022-10-08T07:41:40.993Z,9.90
2022-10-08T07:44:12.264Z,10.00
2022-10-08T07:46:45.552Z,10.10
2022-10-08T07:49:16.105Z,10.20
2022-10-08T07:51:45.952Z,10.30
2022-10-08T07:54:17.625Z,10.30
2022-10-08T07:56:46.629Z,10.40
2022-10-08T07:59:16.256Z,10.50
2022-10-08T08:01:45.591Z,10.60
2022-10-08T08:04:16.037Z,10.80
2022-10-08T08:06:47.722Z,10.90
2022-10-08T08:09:16.996Z,10.90
2022-10-08T08:11:46.495Z,11.10
2022-10-08T08:14:15.203Z,11.20
2022-10-08T08:16:44.005Z,11.30
2022-10-08T08:19:12.734Z,11.40
2022-10-08T08:21:42.823Z,11.40
2022-10-08T08:24:12.798Z,11.50
2022-10-08T08:26:43.602Z,11.50
2022-10-08T08:29:13.833Z,11.50
2022-10-08T08:31:44.523Z,11.60
2022-10-08T08:34:15.884Z,11.70
2022-10-08T08:36:48.910Z,11.70
2022-10-08T08:39:19.342Z,11.80
2022-10-08T08:42:14.280Z,11.80
2022-10-08T08:44:44.353Z,11.90
2022-10-08T08:47:18.755Z,12.00
2022-10-08T08:49:52.262Z,12.00
2022-10-08T08:52:26.598Z,12.10
2022-10-08T08:54:55.444Z,12.20
2022-10-08T08:57:37.327Z,12.30
2022-10-08T09:00:09.349Z,12.30
2022-10-08T09:02:46.941Z,12.40
2022-10-08T09:05:18.494Z,12.40
2022-10-08T09:07:53.099Z,12.50
2022-10-08T09:10:26.275Z,12.50
2022-10-08T09:12:57.240Z,12.50
2022-10-08T09:15:30.613Z,12.60
2022-10-08T09:18:02.188Z,12.60
2022-10-08T09:20:33.160Z,12.60
2022-10-08T09:23:10.488Z,12.60
2022-10-08T09:25:39.245Z,12.60
2022-10-08T09:28:08.177Z,12.60
2022-10-08T09:30:38.963Z,12.60
2022-10-08T09:33:29.581Z,12.60
2022-10-08T09:35:58.784Z,12.60
2022-10-08T09:38:31.693Z,12.60
2022-10-08T09:41:06.989Z,12.60
2022-10-08T09:43:36.308Z,12.60
2022-10-08T09:46:12.173Z,12.70
2022-10-08T09:48:43.453Z,12.70
2022-10-08T09:51:17.584Z,12.80
2022-10-08T09:53:50.280Z,12.90
2022-10-08T09:56:27.922Z,12.90
2022-10-08T09:58:59.504Z,13.00
2022-10-08T10:01:31.591Z,13.10
2022-10-08T10:04:02.495Z,13.20
2022-10-08T10:06:33.779Z,13.30
2022-10-08T10:09:13.281Z,13.30
2022-10-08T10:11:43.455Z,13.40
2022-10-08T10:14:21.859Z,13.50
2022-10-08T10:16:57.697Z,13.50
2022-10-08T10:19:31.762Z,13.60
2022-10-08T10:22:04.648Z,13.60
2022-10-08T10:24:45.888Z,13.70
2022-10-08T10:27:20.742Z,13.60
2022-10-08T10:29:57.916Z,13.60
2022-10-08T10:32:32.340Z,13.60
2022-10-08T10:35:06.571Z,13.70
2022-10-08T10:40:23.668Z,13.80
2022-10-08T10:42:59.275Z,14.00
2022-10-08T10:45:35.242Z,14.00
2022-10-08T10:48:05.280Z,14.10
2022-10-08T10:50:39.281Z,14.20
2022-10-08T10:53:20.570Z,14.20
2022-10-08T10:55:57.513Z,14.30
2022-10-08T10:58:40.503Z,14.40
2022-10-08T11:01:21.342Z,14.50
2022-10-08T11:04:02.138Z,14.80
2022-10-08T11:09:24.456Z,14.80
2022-10-08T11:11:59.437Z,14.80
2022-10-08T11:14:44.676Z,14.90
2022-10-08T11:17:33.265Z,14.90
2022-10-08T11:20:18.065Z,15.10
2022-10-08T11:22:57.671Z,15.20
2022-10-08T11:25:44.690Z,15.10
2022-10-08T11:28:34.399Z,15.10
2022-10-08T11:31:20.088Z,15.20
2022-10-08T11:33:49.955Z,15.20
2022-10-08T11:36:29.235Z,15.30
2022-10-08T11:39:08.956Z,15.40
2022-10-08T11:41:47.919Z,15.40
2022-10-08T11:44:18.839Z,15.40
2022-10-08T11:46:47.940Z,15.40
2022-10-08T11:49:47.854Z,15.40
2022-10-08T11:52:17.357Z,15.50
2022-10-08T11:54:55.311Z,15.50
2022-10-08T11:57:55.511Z,15.50
2022-10-08T12:00:38.405Z,15.60
2022-10-08T12:03:19.979Z,15.60
2022-10-08T12:05:52.576Z,15.50
2022-10-08T12:08:53.458Z,15.60
2022-10-08T12:12:04.423Z,15.50
2022-10-08T12:14:48.874Z,15.60
2022-10-08T12:17:19.373Z,15.60
2022-10-08T12:20:21.890Z,15.60
2022-10-08T12:23:05.937Z,15.60
2022-10-08T12:25:38.006Z,15.70
2022-10-08T12:28:47.501Z,15.80
2022-10-08T12:31:35.779Z,15.70
2022-10-08T12:34:17.794Z,15.80
2022-10-08T12:37:02.033Z,15.80
2022-10-08T12:39:41.968Z,15.90
2022-10-08T12:42:19.328Z,15.90
2022-10-08T12:45:08.166Z,16.00
2022-10-08T12:47:46.022Z,16.00
2022-10-08T12:50:52.289Z,16.00
2022-10-08T12:53:21.254Z,16.00
2022-10-08T12:55:53.649Z,16.00
2022-10-08T12:58:26.133Z,16.00
2022-10-08T13:00:57.765Z,16.00
2022-10-08T13:03:26.736Z,15.90
2022-10-08T13:05:57.852Z,15.90
2022-10-08T13:08:35.055Z,15.80
2022-10-08T13:11:06.758Z,15.80
2022-10-08T13:13:49.218Z,15.80
2022-10-08T13:16:20.003Z,15.80
2022-10-08T13:18:53.629Z,15.80
2022-10-08T13:21:38.367Z,15.80
2022-10-08T13:24:32.341Z,15.80
2022-10-08T13:27:01.055Z,15.90
2022-10-08T13:29:32.616Z,15.80
2022-10-08T13:32:03.733Z,15.70
2022-10-08T13:34:35.087Z,15.60
2022-10-08T13:37:07.550Z,15.60
2022-10-08T13:39:39.029Z,15.60
2022-10-08T13:42:11.557Z,15.60
2022-10-08T13:44:42.612Z,15.60
2022-10-08T13:47:14.238Z,15.50
2022-10-08T13:49:43.311Z,15.50
2022-10-08T13:52:16.927Z,15.40
2022-10-08T13:54:46.044Z,15.30
2022-10-08T13:57:14.988Z,15.30
2022-10-08T13:59:43.643Z,15.30
2022-10-08T14:02:14.358Z,15.30
2022-10-08T14:04:43.248Z,15.20
2022-10-08T14:07:21.576Z,15.20
2022-10-08T14:09:50.261Z,15.20
2022-10-08T14:12:21.970Z,15.20
2022-10-08T14:14:50.716Z,15.20
2022-10-08T14:17:19.403Z,15.20
2022-10-08T14:19:48.147Z,15.20
2022-10-08T14:22:19.115Z,15.20
2022-10-08T14:24:47.826Z,15.20
2022-10-08T14:27:16.528Z,15.10
2022-10-08T14:29:45.260Z,15.10
2022-10-08T14:32:13.934Z,15.10
2022-10-08T14:34:42.594Z,15.10
2022-10-08T14:37:11.877Z,15.00
2022-10-08T14:39:41.717Z,15.00
2022-10-08T14:42:10.479Z,15.00
2022-10-08T14:44:39.187Z,15.00
2022-10-08T14:47:07.992Z,15.00
2022-10-08T14:57:06.949Z,14.80
2022-10-08T14:59:39.879Z,14.80
2022-10-08T15:07:10.890Z,14.60
2022-10-08T15:09:40.715Z,15.10
2022-10-08T15:12:10.969Z,14.50
2022-10-08T15:14:39.652Z,14.40
2022-10-08T15:17:08.362Z,14.50
2022-10-08T15:19:37.030Z,14.50
2022-10-08T15:22:05.850Z,14.40
2022-10-08T15:24:34.643Z,14.40
2022-10-08T15:27:03.337Z,14.40
2022-10-08T15:29:33.447Z,14.30
2022-10-08T15:32:02.177Z,14.30
2022-10-08T15:34:30.802Z,14.20
2022-10-08T15:36:59.561Z,14.20
2022-10-08T15:39:32.193Z,14.20
2022-10-08T15:42:03.636Z,14.10
2022-10-08T15:44:33.863Z,14.10
2022-10-08T15:47:06.201Z,14.10
2022-10-08T15:49:37.396Z,14.10
2022-10-08T15:52:08.537Z,14.10
2022-10-08T15:54:38.080Z,14.10
2022-10-08T15:57:07.893Z,14.10
2022-10-08T15:59:38.206Z,14.10
2022-10-08T16:02:09.823Z,14.00
2022-10-08T16:39:52.454Z,13.40
2022-10-08T16:42:21.127Z,13.20
2022-10-08T16:44:51.181Z,13.20
2022-10-08T16:47:19.954Z,13.20
2022-10-08T16:49:48.580Z,13.10
2022-10-08T16:52:17.234Z,13.10
2022-10-08T16:54:46.016Z,13.10
2022-10-08T16:57:14.659Z,13.00
2022-10-08T16:59:43.388Z,13.00
2022-10-08T17:02:13.526Z,13.00
2022-10-08T17:04:42.436Z,13.10
2022-10-08T17:07:11.149Z,13.00
2022-10-08T17:09:39.846Z,13.00
2022-10-08T17:12:08.545Z,13.00
2022-10-08T17:14:38.203Z,12.90
2022-10-08T17:17:06.948Z,12.90
2022-10-08T17:19:37.071Z,12.80
2022-10-08T17:22:05.811Z,12.80
2022-10-08T17:24:39.026Z,12.80
2022-10-08T17:27:11.916Z,12.70
2022-10-08T17:29:40.596Z,12.70
2022-10-08T17:32:09.485Z,12.60
2022-10-08T17:34:39.582Z,12.60
2022-10-08T17:37:08.245Z,12.50
2022-10-08T17:39:36.968Z,12.60
2022-10-08T17:42:07.283Z,12.60
2022-10-08T17:44:36.393Z,12.50
2022-10-08T17:47:05.079Z,12.50
2022-10-08T17:49:33.839Z,12.50
2022-10-08T17:52:03.944Z,12.40
2022-10-08T17:54:32.655Z,12.40
2022-10-08T17:57:01.235Z,12.40
2022-10-08T17:59:30.229Z,12.40
2022-10-08T18:01:58.932Z,12.30
2022-10-08T18:04:27.576Z,12.30
2022-10-08T18:07:01.121Z,12.30
2022-10-08T18:09:32.764Z,12.20
2022-10-08T18:12:01.424Z,12.20
2022-10-08T18:14:30.149Z,12.30
2022-10-08T18:16:58.813Z,12.30
2022-10-08T18:19:27.989Z,12.30
2022-10-08T18:21:56.640Z,12.30
2022-10-08T18:24:27.222Z,12.30
2022-10-08T18:26:59.194Z,12.30
2022-10-08T18:29:27.979Z,12.30
2022-10-08T18:31:56.653Z,12.30
2022-10-08T18:34:25.877Z,12.30
2022-10-08T18:36:54.513Z,12.30
2022-10-08T18:39:28.247Z,12.30
2022-10-08T18:41:58.922Z,12.30
2022-10-08T18:44:28.026Z,12.30
2022-10-08T18:46:59.661Z,12.30
2022-10-08T18:49:33.211Z,12.30
2022-10-08T18:52:02.233Z,12.30
2022-10-08T18:54:31.318Z,12.30
2022-10-08T18:57:01.514Z,12.30
2022-10-08T18:59:31.283Z,12.20
2022-10-08T19:02:00.683Z,12.20
2022-10-08T19:04:29.491Z,12.20
2022-10-08T19:06:58.266Z,12.20
2022-10-08T19:09:26.915Z,12.20
2022-10-08T19:11:57.610Z,12.20
2022-10-08T19:14:28.989Z,12.20
2022-10-08T19:16:57.750Z,12.20
2022-10-08T19:19:28.159Z,12.10
2022-10-08T19:22:00.387Z,12.10
2022-10-08T19:24:30.029Z,12.10
2022-10-08T19:26:59.108Z,13.00
2022-10-08T19:29:33.827Z,12.00
2022-10-08T19:32:02.488Z,12.00
2022-10-08T19:34:31.298Z,12.00
2022-10-08T19:36:59.965Z,12.00
2022-10-08T19:39:30.987Z,12.00
2022-10-08T19:42:00.007Z,12.00
2022-10-08T19:44:30.102Z,12.00
2022-10-08T19:46:58.878Z,12.00
2022-10-08T19:49:27.507Z,12.00
2022-10-08T20:22:11.632Z,11.80
2022-10-08T20:24:40.773Z,11.70
2022-10-08T20:27:09.370Z,11.60
2022-10-08T20:29:38.129Z,11.70
2022-10-08T20:32:08.223Z,11.70
2022-10-08T20:34:37.008Z,11.70
2022-10-08T20:37:05.689Z,11.60
2022-10-08T20:39:34.556Z,11.60
2022-10-08T20:42:03.279Z,11.50
2022-10-08T20:44:31.997Z,11.50
2022-10-08T20:47:01.251Z,11.50
2022-10-08T20:49:36.135Z,11.50
2022-10-08T20:52:05.340Z,11.50
2022-10-08T20:54:34.602Z,11.50
2022-10-08T20:57:03.584Z,11.50
2022-10-08T20:59:34.102Z,11.50
2022-10-08T21:02:04.147Z,11.40
2022-10-08T21:04:34.413Z,11.40
2022-10-08T21:07:03.167Z,11.80
2022-10-08T21:09:31.949Z,11.60
2022-10-08T21:12:01.118Z,11.50
2022-10-08T21:14:29.985Z,11.50
2022-10-08T21:16:58.798Z,11.50
2022-10-08T21:19:27.587Z,11.50
2022-10-08T21:21:57.694Z,11.60
2022-10-08T21:24:26.775Z,11.60
2022-10-08T21:26:55.435Z,11.60
2022-10-08T21:29:24.172Z,11.60
2022-10-08T21:31:52.991Z,11.50
2022-10-08T21:34:21.830Z,11.60
2022-10-08T21:36:50.686Z,11.60
2022-10-08T21:39:21.227Z,11.60
2022-10-08T21:41:52.624Z,11.60
2022-10-08T21:44:21.280Z,11.50
2022-10-08T21:46:50.289Z,11.50
2022-10-08T21:49:21.189Z,11.50
2022-10-08T21:51:50.278Z,11.50
2022-10-08T21:54:20.654Z,11.50
2022-10-08T21:56:49.389Z,11.50
2022-10-08T21:59:18.215Z,11.40
2022-10-08T22:01:48.378Z,11.40
2022-10-08T22:04:18.768Z,11.40
2022-10-08T22:24:29.863Z,11.30
2022-10-08T22:27:00.160Z,11.40
2022-10-08T22:29:29.113Z,11.10
2022-10-08T22:31:58.171Z,11.10
2022-10-08T22:34:27.349Z,11.10
2022-10-08T22:36:56.351Z,11.00
2022-10-08T22:39:25.884Z,11.00
2022-10-08T22:41:54.597Z,11.00
2022-10-08T22:44:25.366Z,11.00
2022-10-08T22:46:55.906Z,11.00
2022-10-08T22:49:24.736Z,11.00
2022-10-08T22:51:53.410Z,11.00
2022-10-08T22:54:22.829Z,10.90
2022-10-08T22:56:51.708Z,10.90
2022-10-08T22:59:20.514Z,10.90
2022-10-08T23:01:50.976Z,10.80
2022-10-08T23:04:21.042Z,10.80
2022-10-08T23:06:50.420Z,10.70
2022-10-08T23:09:19.612Z,10.70
2022-10-08T23:11:48.299Z,10.60
2022-10-08T23:14:17.140Z,10.60
2022-10-08T23:16:45.895Z,10.60
2022-10-08T23:19:16.914Z,10.50
2022-10-08T23:21:45.534Z,10.50
2022-10-08T23:24:14.219Z,10.50
2022-10-08T23:26:42.937Z,10.40
2022-10-08T23:29:12.815Z,10.40
2022-10-08T23:31:41.654Z,10.40
2022-10-08T23:34:10.763Z,10.30
2022-10-08T23:36:43.196Z,10.30
2022-10-08T23:39:14.964Z,10.20
2022-10-08T23:41:44.131Z,10.20
2022-10-08T23:44:13.665Z,10.10
2022-10-08T23:46:42.122Z,10.10
2022-10-08T23:49:10.971Z,10.10
2022-10-08T23:51:41.071Z,10.00
2022-10-08T23:54:09.812Z,10.00
2022-10-08T23:56:38.471Z,10.00
2022-10-08T23:59:07.159Z,10.00
